Norwegian Star — C6FR3 — position and weather

sailwx.info

Track history (hours):
 
Tides and Currents Weather Stations Pressure Air Temp Water Temp Dewpoint Dewpoint Depression Visibility Wind Speed Wind Dir Waves Ship Positions

Norwegian Star

Operator: Norwegian Cruise Line

Last reported at 2014-Jul-24 18:28 UTC. Time now 2014-Jul-24 19:19 UTC.
Position N 59°54' E 026°04'.

Type: Ship. MMSI: 311082000.

Date/timePositionNaut miles runAvg speedWind from/ knotsBaromVisibWave heightAir tempDewpointWater temp
2014-Jul-24 18:28N 59°54' E 026°04'1516.5
2014-Jul-24 17:34N 59°50' E 025°35'1916.6
2014-Jul-24 16:24N 59°45' E 024°59'1315.0
2014-Jul-24 15:33N 59°35' E 024°42'9 3.8
2014-Jul-24 13:14N 59°27' E 024°46'3 1.4
2014-Jul-24 11:00N 59°24' E 024°48'3 6.5 320 / 101020.0 0.522.517.816.0
2014-Jul-24 10:30N 59°27' E 024°46'3 6.1
2014-Jul-24 10:00N 59°24' E 024°48'25 3.9 320 / 111020.0 0.522.017.016.0
2014-Jul-24 03:33N 59°28' E 023°60'1716.7
2014-Jul-24 02:32N 59°25' E 023°27'1616.8
2014-Jul-24 01:33N 59°22' E 022°55'1716.6
2014-Jul-24 00:33N 59°18' E 022°24'1716.7
2014-Jul-23 23:33N 59°08' E 021°57'1716.6
2014-Jul-23 22:33N 58°56' E 021°35'6319.5
2014-Jul-23 19:20N 58°04' E 020°28'412.4
2014-Jul-23 19:00N 58°00' E 020°24'1126.2 050 / 161019.0 5.4 1.520.7 20.0
2014-Jul-23 18:33N 57°50' E 020°12'1730.9
2014-Jul-23 18:00N 57°36' E 019°54'3 6.1 020 / 221019.0 5.4 1.520.5 20.0
2014-Jul-23 17:33N 57°34' E 019°52'2020.0
2014-Jul-23 16:33N 57°17' E 019°31'1716.9
2014-Jul-23 15:33N 57°06' E 019°08'1616.2
2014-Jul-23 14:33N 56°55' E 018°45'1616.1
2014-Jul-23 13:33N 56°46' E 018°22'1616.5
2014-Jul-23 12:33N 56°35' E 017°59'1616.5
2014-Jul-23 11:33N 56°24' E 017°36'1616.1
2014-Jul-23 10:33N 56°14' E 017°14'1616.2
2014-Jul-23 09:33N 56°04' E 016°50'1716.1
2014-Jul-23 08:30N 55°55' E 016°25'1516.0
2014-Jul-23 07:33N 55°48' E 016°01'1616.0
2014-Jul-23 06:33N 55°40' E 015°36'1616.0
2014-Jul-23 05:33N 55°32' E 015°12'1616.2
2014-Jul-23 04:33N 55°25' E 014°46'1120.3
2014-Jul-23 04:00N 55°18' E 014°30'510.9 050 / 231020.0 1.020.017.019.0
2014-Jul-23 03:33N 55°14' E 014°25'1616.3
2014-Jul-23 02:33N 55°02' E 014°06'1616.4
2014-Jul-23 01:34N 54°56' E 013°40'1716.5
2014-Jul-23 00:34N 54°51' E 013°13'1616.2
2014-Jul-22 23:33N 54°46' E 012°46'1615.6
2014-Jul-22 22:33N 54°38' E 012°22'1515.0
2014-Jul-22 21:33N 54°25' E 012°10'1312.6
2014-Jul-22 20:33N 54°13' E 012°05'2 2.0
2014-Jul-22 19:32N 54°11' E 012°06'0 0.0
2014-Jul-22 18:28N 54°11' E 012°06'0 0.0
2014-Jul-22 17:31N 54°11' E 012°06'0 0.0
2014-Jul-22 16:33N 54°11' E 012°06'0 0.0
2014-Jul-22 15:33N 54°11' E 012°06'0 0.0
2014-Jul-22 14:32N 54°11' E 012°06'0 0.0
2014-Jul-22 13:32N 54°11' E 012°06'0 0.0
2014-Jul-22 12:32N 54°11' E 012°06'0 0.0
2014-Jul-22 11:31N 54°11' E 012°06'1 2.7
2014-Jul-22 11:00N 54°12' E 012°06'1 2.9 050 / 221018.0 0.519.319.020.0
2014-Jul-22 10:31N 54°11' E 012°06'0 0.0
2014-Jul-22 09:15N 54°11' E 012°06'0 0.0
2014-Jul-22 08:27N 54°11' E 012°06'0 0.0
2014-Jul-22 07:32N 54°11' E 012°06'0 0.0
2014-Jul-22 06:32N 54°11' E 012°06'0 0.2
2014-Jul-22 05:34N 54°10' E 012°06'5 4.8
2014-Jul-22 04:33N 54°15' E 012°02'1817.7
2014-Jul-22 03:33N 54°26' E 011°38'2019.5
2014-Jul-22 02:33N 54°35' E 011°09'3415.5
2014-Jul-22 00:21N 55°09' E 010°59'5514.1
2014-Jul-21 20:26N 56°04' E 011°06'315.2
2014-Jul-21 20:16N 56°06' E 011°08'1115.8
2014-Jul-21 19:33N 56°07' E 011°28'1616.3
2014-Jul-21 18:33N 56°09' E 011°58'1515.6
2014-Jul-21 17:33N 56°10' E 012°25'1616.3
2014-Jul-21 16:33N 55°57' E 012°43'1414.2
2014-Jul-21 15:33N 55°43' E 012°38'1 0.6
2014-Jul-21 14:30N 55°43' E 012°37'0 0.0
2014-Jul-21 13:33N 55°43' E 012°37'0 0.0
2014-Jul-21 12:33N 55°43' E 012°37'0 0.0
2014-Jul-21 11:32N 55°43' E 012°37'1 2.0
2014-Jul-21 11:00N 55°42' E 012°36'1 2.4 050 / 101014.0 5.4 0.523.0 20.0
2014-Jul-21 10:32N 55°43' E 012°37'1 2.1
2014-Jul-21 10:00N 55°42' E 012°36'1 2.4 090 / 101014.0 5.4 0.523.0 20.0
2014-Jul-21 09:31N 55°43' E 012°37'0 0.0
2014-Jul-21 08:31N 55°43' E 012°37'0 0.0
2014-Jul-21 07:32N 55°43' E 012°37'1 2.0
2014-Jul-21 07:00N 55°42' E 012°36'1 2.4 050 / 131015.0 0.520.017.020.0
2014-Jul-21 06:32N 55°43' E 012°37'0 0.0
2014-Jul-21 05:31N 55°43' E 012°37'0 0.2
2014-Jul-21 04:33N 55°43' E 012°38'10 9.6
2014-Jul-21 03:33N 55°52' E 012°40'1413.8
2014-Jul-21 02:33N 56°06' E 012°34'1515.4
2014-Jul-21 01:33N 56°12' E 012°08'2015.4
2014-Jul-21 00:15N 56°07' E 011°33'1215.8
2014-Jul-20 23:30N 56°07' E 011°12'1817.9
2014-Jul-20 22:28N 55°52' E 010°53'1820.2
2014-Jul-20 21:33N 55°34' E 010°51'2020.3
2014-Jul-20 20:33N 55°15' E 011°05'1414.3
2014-Jul-20 19:33N 55°01' E 010°60'1919.1
2014-Jul-20 18:33N 54°42' E 010°53'2121.0
2014-Jul-20 17:33N 54°32' E 011°24'2020.4
2014-Jul-20 16:33N 54°26' E 011°58'1717.4
2014-Jul-20 15:33N 54°38' E 012°21'2019.6
2014-Jul-20 14:33N 54°48' E 012°49'2020.4
2014-Jul-20 13:33N 54°56' E 013°22'2120.7
2014-Jul-20 12:33N 55°03' E 013°56'2020.2
2014-Jul-20 11:33N 55°18' E 014°21'2020.3
2014-Jul-20 10:33N 55°31' E 014°48'2120.9
2014-Jul-20 09:34N 55°40' E 015°21'2121.0
2014-Jul-20 08:33N 55°51' E 015°53'2120.9
2014-Jul-20 07:33N 56°02' E 016°24'713.1
2014-Jul-20 07:00N 56°06' E 016°36'1331.0 090 / 111016.0 0.519.419.317.0
2014-Jul-20 06:33N 56°14' E 016°55'2120.6
2014-Jul-20 05:33N 56°34' E 017°07'2120.7
2014-Jul-20 04:33N 56°53' E 017°19'2120.7
2014-Jul-20 03:33N 57°13' E 017°30'2120.8
2014-Jul-20 02:33N 57°33' E 017°41'2120.8
2014-Jul-20 01:33N 57°52' E 017°59'2120.8
2014-Jul-20 00:33N 58°09' E 018°20'70 3.7
2014-Jul-19 05:30N 59°19' E 018°07'10812.0
2014-Jul-18 20:29N 59°27' E 021°38'1616.9
2014-Jul-18 19:33N 59°28' E 022°09'2747.6
2014-Jul-18 19:00N 59°36' E 023°00'1023.5 270 / 61017.0 5.4 0.518.2 18.0
2014-Jul-18 18:33N 59°32' E 022°42'2747.1
2014-Jul-18 18:00N 59°42' E 023°30'1022.0 270 / 81017.0 5.4 0.518.5 18.0
2014-Jul-18 17:33N 59°37' E 023°14'1717.0
2014-Jul-18 16:33N 59°42' E 023°46'1816.7
2014-Jul-18 15:30N 59°47' E 024°19'1616.1
2014-Jul-18 14:29N 59°56' E 024°46'1212.7
2014-Jul-18 13:33N 60°07' E 024°54'2 1.7
2014-Jul-18 12:32N 60°09' E 024°55'0 0.0
2014-Jul-18 11:32N 60°09' E 024°55'0 0.0
2014-Jul-18 10:31N 60°09' E 024°55'0 0.0
2014-Jul-18 09:31N 60°09' E 024°55'0 0.0
2014-Jul-18 08:27N 60°09' E 024°55'0 0.0
2014-Jul-18 07:33N 60°09' E 024°55'0 0.0
2014-Jul-18 06:30N 60°09' E 024°55'0 0.0
2014-Jul-18 05:32N 60°09' E 024°55'0 0.0
2014-Jul-18 04:29N 60°09' E 024°55'0 0.0
2014-Jul-18 03:32N 60°09' E 024°55'8 8.3
2014-Jul-18 02:33N 60°01' E 024°56'1313.0
2014-Jul-18 01:33N 59°55' E 025°19'1515.1
2014-Jul-18 00:33N 59°56' E 025°50'1515.4
2014-Jul-17 23:33N 59°60' E 026°19'1615.6
2014-Jul-17 22:33N 60°00' E 026°51'1615.6
2014-Jul-17 21:34N 60°04' E 027°21'7414.3
2014-Jul-17 16:26N 59°58' E 029°48'1110.3
2014-Jul-17 15:24N 59°57' E 030°09'1 1.6
2014-Jul-17 14:32N 59°57' E 030°12'0 0.0
2014-Jul-17 13:32N 59°57' E 030°12'0 0.0
2014-Jul-17 12:31N 59°57' E 030°12'0 0.0
2014-Jul-17 07:29N 59°57' E 030°12'0 0.0
2014-Jul-17 06:32N 59°57' E 030°12'0 0.0
2014-Jul-17 05:31N 59°57' E 030°12'0 0.0
2014-Jul-17 04:31N 59°57' E 030°12'0 0.0
2014-Jul-17 03:33N 59°57' E 030°12'0 0.0
2014-Jul-17 02:33N 59°57' E 030°12'0 0.0
2014-Jul-17 01:32N 59°57' E 030°12'0 0.0
2014-Jul-17 00:32N 59°57' E 030°12'0 0.0
2014-Jul-16 23:32N 59°57' E 030°12'0 0.0
2014-Jul-16 22:31N 59°57' E 030°12'0 0.0
2014-Jul-16 21:31N 59°57' E 030°12'0 0.0
2014-Jul-16 20:30N 59°57' E 030°12'0 0.0
2014-Jul-16 19:33N 59°57' E 030°12'0 0.0
2014-Jul-16 18:32N 59°57' E 030°12'0 0.0
2014-Jul-16 17:29N 59°57' E 030°12'0 0.0
2014-Jul-16 16:32N 59°57' E 030°12'0 0.0
2014-Jul-16 15:31N 59°57' E 030°12'0 0.0
2014-Jul-16 14:31N 59°57' E 030°12'0 0.0
2014-Jul-16 13:33N 59°57' E 030°12'3 5.0
2014-Jul-16 13:00N 59°54' E 030°12'3 5.1 200 / 101015.010.8 27.0 21.0
2014-Jul-16 12:27N 59°57' E 030°12'0 0.0
2014-Jul-16 11:32N 59°57' E 030°12'0 0.0
2014-Jul-16 10:32N 59°57' E 030°12'0 0.0
2014-Jul-16 09:13N 59°57' E 030°12'0 0.0
2014-Jul-16 08:13N 59°57' E 030°12'0 0.0
2014-Jul-16 07:31N 59°57' E 030°12'0 0.0
2014-Jul-16 06:30N 59°57' E 030°12'0 0.0
2014-Jul-16 05:30N 59°57' E 030°12'0 0.0
2014-Jul-16 03:30N 59°57' E 030°12'9112.7
2014-Jul-15 20:16N 59°60' E 027°09'1115.9
2014-Jul-15 19:33N 59°59' E 026°46'1716.6
2014-Jul-15 18:33N 59°55' E 026°14'1547180.6
2014-Jul-15 10:00N 59°24' W 024°48'   230 / 151012.0 0.523.011.018.0
Track history (hours):
 
Tides and Currents Weather Stations Pressure Air Temp Water Temp Dewpoint Dewpoint Depression Visibility Wind Speed Wind Dir Waves Ship Positions

Norwegian Star

Operator: Norwegian Cruise Line

Last reported at 2014-Jul-24 18:28 UTC. Time now 2014-Jul-24 19:19 UTC.
Position N 59°54' E 026°04'.

Type: Ship. MMSI: 311082000.

Date/timePositionNaut miles runAvg speedWind from/ knotsBaromVisibWave heightAir tempDewpointWater temp
2014-Jul-24 18:28N 59°54' E 026°04'1516.5
2014-Jul-24 17:34N 59°50' E 025°35'1916.6
2014-Jul-24 16:24N 59°45' E 024°59'1315.0
2014-Jul-24 15:33N 59°35' E 024°42'9 3.8
2014-Jul-24 13:14N 59°27' E 024°46'3 1.4
2014-Jul-24 11:00N 59°24' E 024°48'3 6.5 320 / 101020.0 0.522.517.816.0
2014-Jul-24 10:30N 59°27' E 024°46'3 6.1
2014-Jul-24 10:00N 59°24' E 024°48'25 3.9 320 / 111020.0 0.522.017.016.0
2014-Jul-24 03:33N 59°28' E 023°60'1716.7
2014-Jul-24 02:32N 59°25' E 023°27'1616.8
2014-Jul-24 01:33N 59°22' E 022°55'1716.6
2014-Jul-24 00:33N 59°18' E 022°24'1716.7
2014-Jul-23 23:33N 59°08' E 021°57'1716.6
2014-Jul-23 22:33N 58°56' E 021°35'6319.5
2014-Jul-23 19:20N 58°04' E 020°28'412.4
2014-Jul-23 19:00N 58°00' E 020°24'1126.2 050 / 161019.0 5.4 1.520.7 20.0
2014-Jul-23 18:33N 57°50' E 020°12'1730.9
2014-Jul-23 18:00N 57°36' E 019°54'3 6.1 020 / 221019.0 5.4 1.520.5 20.0
2014-Jul-23 17:33N 57°34' E 019°52'2020.0
2014-Jul-23 16:33N 57°17' E 019°31'1716.9
2014-Jul-23 15:33N 57°06' E 019°08'1616.2
2014-Jul-23 14:33N 56°55' E 018°45'1616.1
2014-Jul-23 13:33N 56°46' E 018°22'1616.5
2014-Jul-23 12:33N 56°35' E 017°59'1616.5
2014-Jul-23 11:33N 56°24' E 017°36'1616.1
2014-Jul-23 10:33N 56°14' E 017°14'1616.2
2014-Jul-23 09:33N 56°04' E 016°50'1716.1
2014-Jul-23 08:30N 55°55' E 016°25'1516.0
2014-Jul-23 07:33N 55°48' E 016°01'1616.0
2014-Jul-23 06:33N 55°40' E 015°36'1616.0
2014-Jul-23 05:33N 55°32' E 015°12'1616.2
2014-Jul-23 04:33N 55°25' E 014°46'1120.3
2014-Jul-23 04:00N 55°18' E 014°30'510.9 050 / 231020.0 1.020.017.019.0
2014-Jul-23 03:33N 55°14' E 014°25'1616.3
2014-Jul-23 02:33N 55°02' E 014°06'1616.4
2014-Jul-23 01:34N 54°56' E 013°40'1716.5
2014-Jul-23 00:34N 54°51' E 013°13'1616.2
2014-Jul-22 23:33N 54°46' E 012°46'1615.6
2014-Jul-22 22:33N 54°38' E 012°22'1515.0
2014-Jul-22 21:33N 54°25' E 012°10'1312.6
2014-Jul-22 20:33N 54°13' E 012°05'2 2.0
2014-Jul-22 19:32N 54°11' E 012°06'0 0.0
2014-Jul-22 18:28N 54°11' E 012°06'0 0.0
2014-Jul-22 17:31N 54°11' E 012°06'0 0.0
2014-Jul-22 16:33N 54°11' E 012°06'0 0.0
2014-Jul-22 15:33N 54°11' E 012°06'0 0.0
2014-Jul-22 14:32N 54°11' E 012°06'0 0.0
2014-Jul-22 13:32N 54°11' E 012°06'0 0.0
2014-Jul-22 12:32N 54°11' E 012°06'0 0.0
2014-Jul-22 11:31N 54°11' E 012°06'1 2.7
2014-Jul-22 11:00N 54°12' E 012°06'1 2.9 050 / 221018.0 0.519.319.020.0
2014-Jul-22 10:31N 54°11' E 012°06'0 0.0
2014-Jul-22 09:15N 54°11' E 012°06'0 0.0
2014-Jul-22 08:27N 54°11' E 012°06'0 0.0
2014-Jul-22 07:32N 54°11' E 012°06'0 0.0
2014-Jul-22 06:32N 54°11' E 012°06'0 0.2
2014-Jul-22 05:34N 54°10' E 012°06'5 4.8
2014-Jul-22 04:33N 54°15' E 012°02'1817.7
2014-Jul-22 03:33N 54°26' E 011°38'2019.5
2014-Jul-22 02:33N 54°35' E 011°09'3415.5
2014-Jul-22 00:21N 55°09' E 010°59'5514.1
2014-Jul-21 20:26N 56°04' E 011°06'315.2
2014-Jul-21 20:16N 56°06' E 011°08'1115.8
2014-Jul-21 19:33N 56°07' E 011°28'1616.3
2014-Jul-21 18:33N 56°09' E 011°58'1515.6
2014-Jul-21 17:33N 56°10' E 012°25'1616.3
2014-Jul-21 16:33N 55°57' E 012°43'1414.2
2014-Jul-21 15:33N 55°43' E 012°38'1 0.6
2014-Jul-21 14:30N 55°43' E 012°37'0 0.0
2014-Jul-21 13:33N 55°43' E 012°37'0 0.0
2014-Jul-21 12:33N 55°43' E 012°37'0 0.0
2014-Jul-21 11:32N 55°43' E 012°37'1 2.0
2014-Jul-21 11:00N 55°42' E 012°36'1 2.4 050 / 101014.0 5.4 0.523.0 20.0
2014-Jul-21 10:32N 55°43' E 012°37'1 2.1
2014-Jul-21 10:00N 55°42' E 012°36'1 2.4 090 / 101014.0 5.4 0.523.0 20.0
2014-Jul-21 09:31N 55°43' E 012°37'0 0.0
2014-Jul-21 08:31N 55°43' E 012°37'0 0.0
2014-Jul-21 07:32N 55°43' E 012°37'1 2.0
2014-Jul-21 07:00N 55°42' E 012°36'1 2.4 050 / 131015.0 0.520.017.020.0
2014-Jul-21 06:32N 55°43' E 012°37'0 0.0
2014-Jul-21 05:31N 55°43' E 012°37'0 0.2
2014-Jul-21 04:33N 55°43' E 012°38'10 9.6
2014-Jul-21 03:33N 55°52' E 012°40'1413.8
2014-Jul-21 02:33N 56°06' E 012°34'1515.4
2014-Jul-21 01:33N 56°12' E 012°08'2015.4
2014-Jul-21 00:15N 56°07' E 011°33'1215.8
2014-Jul-20 23:30N 56°07' E 011°12'1817.9
2014-Jul-20 22:28N 55°52' E 010°53'1820.2
2014-Jul-20 21:33N 55°34' E 010°51'2020.3
2014-Jul-20 20:33N 55°15' E 011°05'1414.3
2014-Jul-20 19:33N 55°01' E 010°60'1919.1
2014-Jul-20 18:33N 54°42' E 010°53'2121.0
2014-Jul-20 17:33N 54°32' E 011°24'2020.4
2014-Jul-20 16:33N 54°26' E 011°58'1717.4
2014-Jul-20 15:33N 54°38' E 012°21'2019.6
2014-Jul-20 14:33N 54°48' E 012°49'2020.4
2014-Jul-20 13:33N 54°56' E 013°22'2120.7
2014-Jul-20 12:33N 55°03' E 013°56'2020.2
2014-Jul-20 11:33N 55°18' E 014°21'2020.3
2014-Jul-20 10:33N 55°31' E 014°48'2120.9
2014-Jul-20 09:34N 55°40' E 015°21'2121.0
2014-Jul-20 08:33N 55°51' E 015°53'2120.9
2014-Jul-20 07:33N 56°02' E 016°24'713.1
2014-Jul-20 07:00N 56°06' E 016°36'1331.0 090 / 111016.0 0.519.419.317.0
2014-Jul-20 06:33N 56°14' E 016°55'2120.6
2014-Jul-20 05:33N 56°34' E 017°07'2120.7
2014-Jul-20 04:33N 56°53' E 017°19'2120.7
2014-Jul-20 03:33N 57°13' E 017°30'2120.8
2014-Jul-20 02:33N 57°33' E 017°41'2120.8
2014-Jul-20 01:33N 57°52' E 017°59'2120.8
2014-Jul-20 00:33N 58°09' E 018°20'70 3.7
2014-Jul-19 05:30N 59°19' E 018°07'10812.0
2014-Jul-18 20:29N 59°27' E 021°38'1616.9
2014-Jul-18 19:33N 59°28' E 022°09'2747.6
2014-Jul-18 19:00N 59°36' E 023°00'1023.5 270 / 61017.0 5.4 0.518.2 18.0
2014-Jul-18 18:33N 59°32' E 022°42'2747.1
2014-Jul-18 18:00N 59°42' E 023°30'1022.0 270 / 81017.0 5.4 0.518.5 18.0
2014-Jul-18 17:33N 59°37' E 023°14'1717.0
2014-Jul-18 16:33N 59°42' E 023°46'1816.7
2014-Jul-18 15:30N 59°47' E 024°19'1616.1
2014-Jul-18 14:29N 59°56' E 024°46'1212.7
2014-Jul-18 13:33N 60°07' E 024°54'2 1.7
2014-Jul-18 12:32N 60°09' E 024°55'0 0.0
2014-Jul-18 11:32N 60°09' E 024°55'0 0.0
2014-Jul-18 10:31N 60°09' E 024°55'0 0.0
2014-Jul-18 09:31N 60°09' E 024°55'0 0.0
2014-Jul-18 08:27N 60°09' E 024°55'0 0.0
2014-Jul-18 07:33N 60°09' E 024°55'0 0.0
2014-Jul-18 06:30N 60°09' E 024°55'0 0.0
2014-Jul-18 05:32N 60°09' E 024°55'0 0.0
2014-Jul-18 04:29N 60°09' E 024°55'0 0.0
2014-Jul-18 03:32N 60°09' E 024°55'8 8.3
2014-Jul-18 02:33N 60°01' E 024°56'1313.0
2014-Jul-18 01:33N 59°55' E 025°19'1515.1
2014-Jul-18 00:33N 59°56' E 025°50'1515.4
2014-Jul-17 23:33N 59°60' E 026°19'1615.6
2014-Jul-17 22:33N 60°00' E 026°51'1615.6
2014-Jul-17 21:34N 60°04' E 027°21'7414.3
2014-Jul-17 16:26N 59°58' E 029°48'1110.3
2014-Jul-17 15:24N 59°57' E 030°09'1 1.6
2014-Jul-17 14:32N 59°57' E 030°12'0 0.0
2014-Jul-17 13:32N 59°57' E 030°12'0 0.0
2014-Jul-17 12:31N 59°57' E 030°12'0 0.0
2014-Jul-17 07:29N 59°57' E 030°12'0 0.0
2014-Jul-17 06:32N 59°57' E 030°12'0 0.0
2014-Jul-17 05:31N 59°57' E 030°12'0 0.0
2014-Jul-17 04:31N 59°57' E 030°12'0 0.0
2014-Jul-17 03:33N 59°57' E 030°12'0 0.0
2014-Jul-17 02:33N 59°57' E 030°12'0 0.0
2014-Jul-17 01:32N 59°57' E 030°12'0 0.0
2014-Jul-17 00:32N 59°57' E 030°12'0 0.0
2014-Jul-16 23:32N 59°57' E 030°12'0 0.0
2014-Jul-16 22:31N 59°57' E 030°12'0 0.0
2014-Jul-16 21:31N 59°57' E 030°12'0 0.0
2014-Jul-16 20:30N 59°57' E 030°12'0 0.0
2014-Jul-16 19:33N 59°57' E 030°12'0 0.0
2014-Jul-16 18:32N 59°57' E 030°12'0 0.0
2014-Jul-16 17:29N 59°57' E 030°12'0 0.0
2014-Jul-16 16:32N 59°57' E 030°12'0 0.0
2014-Jul-16 15:31N 59°57' E 030°12'0 0.0
2014-Jul-16 14:31N 59°57' E 030°12'0 0.0
2014-Jul-16 13:33N 59°57' E 030°12'3 5.0
2014-Jul-16 13:00N 59°54' E 030°12'3 5.1 200 / 101015.010.8 27.0 21.0
2014-Jul-16 12:27N 59°57' E 030°12'0 0.0
2014-Jul-16 11:32N 59°57' E 030°12'0 0.0
2014-Jul-16 10:32N 59°57' E 030°12'0 0.0
2014-Jul-16 09:13N 59°57' E 030°12'0 0.0
2014-Jul-16 08:13N 59°57' E 030°12'0 0.0
2014-Jul-16 07:31N 59°57' E 030°12'0 0.0
2014-Jul-16 06:30N 59°57' E 030°12'0 0.0
2014-Jul-16 05:30N 59°57' E 030°12'0 0.0
2014-Jul-16 03:30N 59°57' E 030°12'9112.7
2014-Jul-15 20:16N 59°60' E 027°09'1115.9
2014-Jul-15 19:33N 59°59' E 026°46'1716.6
2014-Jul-15 18:33N 59°55' E 026°14'1547180.6
2014-Jul-15 10:00N 59°24' W 024°48'   230 / 151012.0 0.523.011.018.0

Dump ship's entire track history